Airfield :
LOGIN :

Register | Disclaimer

   EN    FR    IT 

 










Legend :    VFR   Marginal VFR   IFR   Intensive IFR   Very Intensive IFR
Visi :
Ceiling :
>= 8 km
>= 3000ft
5 to 8 km
1000 to 3000 ft
1500m to 5 km
500 to 1000 ft
800 to 1500m
200 to 500 ft
< 800m
< 200 ft
Symbols :   Thunderstorms  Fog  Heavy snow  Heavy precipitations  Wind > 20 kt
SIGMETs :     Misc.  Thunderstorms  Icing  Turbulence  Mountain Waves  Volcanic Ashes






- Airport Elevation : 16 ft
- IATA code : SDR


LEXJ - Santander Cantabria

CURRENT METAR :
  • 081800Z 12005KT 080V160 9999 FEW018 SCT026TCU 24/19 Q1017

EXPIRED METARs :
  • 081730Z 31006KT 280V010 9999 FEW018 BKN026 23/19 Q1019
  • 081700Z 32006KT 260V020 9999 SCT019 24/19 Q1019
  • 081630Z 35005KT 290V030 9999 FEW020 24/19 Q1019
  • 081600Z 02004KT 330V060 9999 FEW020 25/19 Q1018
  • 081530Z 01004KT 310V060 9999 FEW020 26/19 Q1019

TAF TAF LEXJ
Valid from the 08 at 15:00 until the 09 at 15:00 UTC


081400Z 0815/0915 34006KT 9999 FEW030 TX26/0914Z TN18/0905Z
TEMPO 0817/0822 SCT030TCU
PROB30
TEMPO 0817/0822 TS SHRA SCT030CB BKN035TCU
PROB30
TEMPO 0900/0907 3000 BR



MET'MAP, your aeronautical weather chart ! - Copyright ORBIFLY December 2007 - Disclaimer

ORBIFLY MET'MAP TEAM :

Programming & Development : Alexandra Zaïnal
Concept & original design : Baudouin d'Aumeries
Assistance for programming : Marc-Olivier Méhu
Technical & hardware support : Manuel Goepfert

Contact : metmap@orbifly.com




SOURCES & CREDITS :

   NOAA